Rechitsa, Belarus
Current Conditions -  °F | °C
As of 11:00 AM on Friday 31 Oct 2014 (Local Time) from UMGG Reporting Station
Haze Haze  
Wind Chill: 37°   Ceiling: Unl
Heat Index: 37°   Visibility: 2.1mi
Dew Point: 34°   Wind: 2mph
Humidity: 87%   Direction: NA
Pressure: 30.21"   Gusts: NA
Location:  52.37°N, 30.4°E
Report Text: UMGG 310900Z VRB01MPS 3500 BR NSC 03/01 Q1023 R10/CLRD// NOSIG
Loading
Personal Weather Stations






























Interactive Weather Map
Tropical Storm Tracking
New forecast layout! Learn more

10-Day Weather Forecast

Advertisements
Track Severe Weather on mobile